sensor_id;sensor_type;location;lat;lon;timestamp;P1;durP1;ratioP1;P2;durP2;ratioP2
64966;SDS011;51710;38.732;-121.358;2023-02-19T00:01:25;12.55;;;1.80;;
64966;SDS011;51710;38.732;-121.358;2023-02-19T00:03:56;2.50;;;1.30;;
64966;SDS011;51710;38.732;-121.358;2023-02-19T00:06:31;2.63;;;1.30;;
64966;SDS011;51710;38.732;-121.358;2023-02-19T01:23:06;4.70;;;1.48;;
64966;SDS011;51710;38.732;-121.358;2023-02-19T01:25:33;6.82;;;1.40;;
64966;SDS011;51710;38.732;-121.358;2023-02-19T01:27:59;3.75;;;1.30;;
64966;SDS011;51710;38.732;-121.358;2023-02-19T01:30:25;4.07;;;1.60;;
64966;SDS011;51710;38.732;-121.358;2023-02-19T01:32:52;3.75;;;1.52;;
64966;SDS011;51710;38.732;-121.358;2023-02-19T01:35:18;3.78;;;1.70;;
64966;SDS011;51710;38.732;-121.358;2023-02-19T01:37:44;3.10;;;1.40;;
64966;SDS011;51710;38.732;-121.358;2023-02-19T01:40:10;3.10;;;1.40;;
64966;SDS011;51710;38.732;-121.358;2023-02-19T01:42:39;3.00;;;1.33;;
64966;SDS011;51710;38.732;-121.358;2023-02-19T01:45:16;2.25;;;1.15;;
64966;SDS011;51710;38.732;-121.358;2023-02-19T01:47:45;4.07;;;1.70;;
64966;SDS011;51710;38.732;-121.358;2023-02-19T01:50:18;2.97;;;1.40;;
64966;SDS011;51710;38.732;-121.358;2023-02-19T01:52:44;2.88;;;1.50;;
64966;SDS011;51710;38.732;-121.358;2023-02-19T01:55:12;2.75;;;1.30;;
64966;SDS011;51710;38.732;-121.358;2023-02-19T01:57:40;2.78;;;1.30;;
64966;SDS011;51710;38.732;-121.358;2023-02-19T02:00:12;2.95;;;1.52;;
64966;SDS011;51710;38.732;-121.358;2023-02-19T02:02:41;2.53;;;1.58;;
64966;SDS011;51710;38.732;-121.358;2023-02-19T02:05:12;3.08;;;1.58;;
64966;SDS011;51710;38.732;-121.358;2023-02-19T02:07:48;4.63;;;1.33;;
64966;SDS011;51710;38.732;-121.358;2023-02-19T02:10:33;3.70;;;1.77;;
64966;SDS011;51710;38.732;-121.358;2023-02-19T02:13:00;6.32;;;1.30;;
64966;SDS011;51710;38.732;-121.358;2023-02-19T02:15:34;2.97;;;1.38;;
64966;SDS011;51710;38.732;-121.358;2023-02-19T02:18:27;3.95;;;1.73;;
64966;SDS011;51710;38.732;-121.358;2023-02-19T02:23:45;2.17;;;1.40;;
64966;SDS011;51710;38.732;-121.358;2023-02-19T02:26:41;3.17;;;1.42;;
64966;SDS011;51710;38.732;-121.358;2023-02-19T02:29:15;5.47;;;1.55;;
64966;SDS011;51710;38.732;-121.358;2023-02-19T02:32:11;2.78;;;1.40;;
64966;SDS011;51710;38.732;-121.358;2023-02-19T02:34:53;3.80;;;1.23;;
64966;SDS011;51710;38.732;-121.358;2023-02-19T02:37:24;2.15;;;1.45;;
64966;SDS011;51710;38.732;-121.358;2023-02-19T02:39:55;4.10;;;1.80;;
64966;SDS011;51710;38.732;-121.358;2023-02-19T02:42:23;2.70;;;1.40;;
64966;SDS011;51710;38.732;-121.358;2023-02-19T02:44:53;4.78;;;1.60;;
64966;SDS011;51710;38.732;-121.358;2023-02-19T02:47:40;4.18;;;2.13;;
64966;SDS011;51710;38.732;-121.358;2023-02-19T02:50:18;5.43;;;1.90;;
64966;SDS011;51710;38.732;-121.358;2023-02-19T02:53:04;4.07;;;1.90;;
64966;SDS011;51710;38.732;-121.358;2023-02-19T02:55:56;5.63;;;1.92;;
64966;SDS011;51710;38.732;-121.358;2023-02-19T02:58:24;5.22;;;1.50;;
64966;SDS011;51710;38.732;-121.358;2023-02-19T03:00:55;1.83;;;1.05;;
64966;SDS011;51710;38.732;-121.358;2023-02-19T03:03:44;2.30;;;1.25;;
64966;SDS011;51710;38.732;-121.358;2023-02-19T03:06:15;1.70;;;1.20;;
64966;SDS011;51710;38.732;-121.358;2023-02-19T03:08:49;2.45;;;1.23;;
64966;SDS011;51710;38.732;-121.358;2023-02-19T03:11:22;3.10;;;1.13;;
64966;SDS011;51710;38.732;-121.358;2023-02-19T03:16:53;2.60;;;1.50;;
64966;SDS011;51710;38.732;-121.358;2023-02-19T03:19:44;6.15;;;2.03;;
64966;SDS011;51710;38.732;-121.358;2023-02-19T03:22:23;4.40;;;1.80;;
64966;SDS011;51710;38.732;-121.358;2023-02-19T03:24:59;5.30;;;1.80;;
64966;SDS011;51710;38.732;-121.358;2023-02-19T03:27:49;5.10;;;1.65;;
64966;SDS011;51710;38.732;-121.358;2023-02-19T03:30:20;2.67;;;1.70;;
64966;SDS011;51710;38.732;-121.358;2023-02-19T03:35:54;3.50;;;2.00;;
64966;SDS011;51710;38.732;-121.358;2023-02-19T03:39:06;5.38;;;2.30;;
64966;SDS011;51710;38.732;-121.358;2023-02-19T03:42:18;21.33;;;3.13;;
64966;SDS011;51710;38.732;-121.358;2023-02-19T03:47:21;4.90;;;1.83;;
64966;SDS011;51710;38.732;-121.358;2023-02-19T03:50:02;3.28;;;1.63;;
64966;SDS011;51710;38.732;-121.358;2023-02-19T03:53:02;5.45;;;1.40;;
64966;SDS011;51710;38.732;-121.358;2023-02-19T03:58:08;8.02;;;1.80;;
64966;SDS011;51710;38.732;-121.358;2023-02-19T04:03:19;3.10;;;1.50;;
64966;SDS011;51710;38.732;-121.358;2023-02-19T04:05:48;3.85;;;1.35;;
64966;SDS011;51710;38.732;-121.358;2023-02-19T04:08:18;5.93;;;1.50;;
64966;SDS011;51710;38.732;-121.358;2023-02-19T04:10:46;5.20;;;1.90;;
64966;SDS011;51710;38.732;-121.358;2023-02-19T04:13:16;3.67;;;1.60;;
64966;SDS011;51710;38.732;-121.358;2023-02-19T04:15:49;3.15;;;1.58;;
64966;SDS011;51710;38.732;-121.358;2023-02-19T04:18:20;3.33;;;1.73;;
64966;SDS011;51710;38.732;-121.358;2023-02-19T04:20:50;5.85;;;2.63;;
64966;SDS011;51710;38.732;-121.358;2023-02-19T04:23:18;6.35;;;2.17;;
64966;SDS011;51710;38.732;-121.358;2023-02-19T04:25:49;7.45;;;3.75;;
64966;SDS011;51710;38.732;-121.358;2023-02-19T04:28:18;9.68;;;3.95;;
64966;SDS011;51710;38.732;-121.358;2023-02-19T04:30:44;6.65;;;3.03;;
64966;SDS011;51710;38.732;-121.358;2023-02-19T04:33:11;3.55;;;2.08;;
64966;SDS011;51710;38.732;-121.358;2023-02-19T04:35:37;4.78;;;2.00;;
64966;SDS011;51710;38.732;-121.358;2023-02-19T04:38:03;4.47;;;2.03;;
64966;SDS011;51710;38.732;-121.358;2023-02-19T04:40:30;5.35;;;2.30;;
64966;SDS011;51710;38.732;-121.358;2023-02-19T04:42:56;10.05;;;4.18;;
64966;SDS011;51710;38.732;-121.358;2023-02-19T04:45:22;11.40;;;4.13;;
64966;SDS011;51710;38.732;-121.358;2023-02-19T04:47:49;11.52;;;4.28;;
64966;SDS011;51710;38.732;-121.358;2023-02-19T04:50:15;13.05;;;4.63;;
64966;SDS011;51710;38.732;-121.358;2023-02-19T04:52:41;11.48;;;4.85;;
64966;SDS011;51710;38.732;-121.358;2023-02-19T04:55:08;8.70;;;4.88;;
64966;SDS011;51710;38.732;-121.358;2023-02-19T04:57:34;8.35;;;3.90;;
64966;SDS011;51710;38.732;-121.358;2023-02-19T05:00:01;7.70;;;4.20;;
64966;SDS011;51710;38.732;-121.358;2023-02-19T05:02:28;17.77;;;7.82;;
64966;SDS011;51710;38.732;-121.358;2023-02-19T05:04:54;27.77;;;11.25;;
64966;SDS011;51710;38.732;-121.358;2023-02-19T05:07:20;45.75;;;20.65;;
64966;SDS011;51710;38.732;-121.358;2023-02-19T05:09:47;27.98;;;12.48;;
64966;SDS011;51710;38.732;-121.358;2023-02-19T05:12:13;33.15;;;14.52;;
64966;SDS011;51710;38.732;-121.358;2023-02-19T05:14:39;27.13;;;12.27;;
64966;SDS011;51710;38.732;-121.358;2023-02-19T05:17:05;20.73;;;9.77;;
64966;SDS011;51710;38.732;-121.358;2023-02-19T05:19:32;17.55;;;7.22;;
64966;SDS011;51710;38.732;-121.358;2023-02-19T05:21:58;14.30;;;6.45;;
64966;SDS011;51710;38.732;-121.358;2023-02-19T05:24:24;18.33;;;9.43;;
64966;SDS011;51710;38.732;-121.358;2023-02-19T05:26:51;21.75;;;10.23;;
64966;SDS011;51710;38.732;-121.358;2023-02-19T05:29:18;17.02;;;6.53;;
64966;SDS011;51710;38.732;-121.358;2023-02-19T05:31:44;19.80;;;8.75;;
64966;SDS011;51710;38.732;-121.358;2023-02-19T05:34:10;17.48;;;8.23;;
64966;SDS011;51710;38.732;-121.358;2023-02-19T05:36:36;19.38;;;8.10;;
64966;SDS011;51710;38.732;-121.358;2023-02-19T05:39:04;14.57;;;7.43;;
64966;SDS011;51710;38.732;-121.358;2023-02-19T05:41:33;13.70;;;5.50;;
64966;SDS011;51710;38.732;-121.358;2023-02-19T05:44:00;10.10;;;5.25;;
64966;SDS011;51710;38.732;-121.358;2023-02-19T05:46:27;9.80;;;4.60;;
64966;SDS011;51710;38.732;-121.358;2023-02-19T05:48:54;8.57;;;4.55;;
64966;SDS011;51710;38.732;-121.358;2023-02-19T05:51:22;6.75;;;3.92;;
64966;SDS011;51710;38.732;-121.358;2023-02-19T05:53:50;8.57;;;4.80;;
64966;SDS011;51710;38.732;-121.358;2023-02-19T05:56:20;9.38;;;5.13;;
64966;SDS011;51710;38.732;-121.358;2023-02-19T05:58:54;10.77;;;6.20;;
64966;SDS011;51710;38.732;-121.358;2023-02-19T06:01:22;7.25;;;4.93;;
64966;SDS011;51710;38.732;-121.358;2023-02-19T06:03:50;6.65;;;3.83;;
64966;SDS011;51710;38.732;-121.358;2023-02-19T06:06:17;8.52;;;3.75;;
64966;SDS011;51710;38.732;-121.358;2023-02-19T06:08:44;9.05;;;3.58;;
64966;SDS011;51710;38.732;-121.358;2023-02-19T06:11:12;8.52;;;3.83;;
64966;SDS011;51710;38.732;-121.358;2023-02-19T06:13:38;5.70;;;3.25;;
64966;SDS011;51710;38.732;-121.358;2023-02-19T06:16:05;6.47;;;3.88;;
64966;SDS011;51710;38.732;-121.358;2023-02-19T06:18:33;10.98;;;3.40;;
64966;SDS011;51710;38.732;-121.358;2023-02-19T06:21:03;6.55;;;3.42;;
64966;SDS011;51710;38.732;-121.358;2023-02-19T06:23:30;8.82;;;4.57;;
64966;SDS011;51710;38.732;-121.358;2023-02-19T06:26:06;8.00;;;3.67;;
64966;SDS011;51710;38.732;-121.358;2023-02-19T06:28:36;11.10;;;4.00;;
64966;SDS011;51710;38.732;-121.358;2023-02-19T06:31:03;11.35;;;4.20;;
64966;SDS011;51710;38.732;-121.358;2023-02-19T06:33:30;15.10;;;5.78;;
64966;SDS011;51710;38.732;-121.358;2023-02-19T06:35:58;9.00;;;4.45;;
64966;SDS011;51710;38.732;-121.358;2023-02-19T06:38:26;6.65;;;3.63;;
64966;SDS011;51710;38.732;-121.358;2023-02-19T06:40:52;9.93;;;4.38;;
64966;SDS011;51710;38.732;-121.358;2023-02-19T06:43:19;8.65;;;4.50;;
64966;SDS011;51710;38.732;-121.358;2023-02-19T06:45:46;9.18;;;4.78;;
64966;SDS011;51710;38.732;-121.358;2023-02-19T06:48:12;9.50;;;5.47;;
64966;SDS011;51710;38.732;-121.358;2023-02-19T06:50:38;9.63;;;5.45;;
64966;SDS011;51710;38.732;-121.358;2023-02-19T06:53:04;10.63;;;5.07;;
64966;SDS011;51710;38.732;-121.358;2023-02-19T06:55:31;8.68;;;4.95;;
64966;SDS011;51710;38.732;-121.358;2023-02-19T06:57:57;11.18;;;5.50;;
64966;SDS011;51710;38.732;-121.358;2023-02-19T07:00:24;12.05;;;5.20;;
64966;SDS011;51710;38.732;-121.358;2023-02-19T07:02:51;11.27;;;4.65;;
64966;SDS011;51710;38.732;-121.358;2023-02-19T07:05:22;15.73;;;5.10;;
64966;SDS011;51710;38.732;-121.358;2023-02-19T07:07:48;11.05;;;5.38;;
64966;SDS011;51710;38.732;-121.358;2023-02-19T07:10:14;14.75;;;6.97;;
64966;SDS011;51710;38.732;-121.358;2023-02-19T07:12:41;41.22;;;13.15;;
64966;SDS011;51710;38.732;-121.358;2023-02-19T07:15:07;28.05;;;11.98;;
64966;SDS011;51710;38.732;-121.358;2023-02-19T07:17:34;28.67;;;9.98;;
64966;SDS011;51710;38.732;-121.358;2023-02-19T07:20:00;24.60;;;9.57;;
64966;SDS011;51710;38.732;-121.358;2023-02-19T07:22:30;21.77;;;8.45;;
64966;SDS011;51710;38.732;-121.358;2023-02-19T07:24:56;16.58;;;6.85;;
64966;SDS011;51710;38.732;-121.358;2023-02-19T07:27:22;20.98;;;7.68;;
64966;SDS011;51710;38.732;-121.358;2023-02-19T07:29:48;16.02;;;7.90;;
64966;SDS011;51710;38.732;-121.358;2023-02-19T07:32:15;15.70;;;6.97;;
64966;SDS011;51710;38.732;-121.358;2023-02-19T07:34:41;21.75;;;8.70;;
64966;SDS011;51710;38.732;-121.358;2023-02-19T07:37:07;27.42;;;11.73;;
64966;SDS011;51710;38.732;-121.358;2023-02-19T07:39:33;25.63;;;12.50;;
64966;SDS011;51710;38.732;-121.358;2023-02-19T07:41:59;27.13;;;9.70;;
64966;SDS011;51710;38.732;-121.358;2023-02-19T07:44:26;20.48;;;8.90;;
64966;SDS011;51710;38.732;-121.358;2023-02-19T07:46:52;20.08;;;8.40;;
64966;SDS011;51710;38.732;-121.358;2023-02-19T07:49:18;25.45;;;9.40;;
64966;SDS011;51710;38.732;-121.358;2023-02-19T07:51:44;13.35;;;7.15;;
64966;SDS011;51710;38.732;-121.358;2023-02-19T07:54:11;14.18;;;7.38;;
64966;SDS011;51710;38.732;-121.358;2023-02-19T07:56:37;17.55;;;7.60;;
64966;SDS011;51710;38.732;-121.358;2023-02-19T07:59:04;16.40;;;7.47;;
64966;SDS011;51710;38.732;-121.358;2023-02-19T08:01:30;17.65;;;8.43;;
64966;SDS011;51710;38.732;-121.358;2023-02-19T08:04:15;14.55;;;7.22;;
64966;SDS011;51710;38.732;-121.358;2023-02-19T08:06:41;19.77;;;7.30;;
64966;SDS011;51710;38.732;-121.358;2023-02-19T08:09:08;21.98;;;7.47;;
64966;SDS011;51710;38.732;-121.358;2023-02-19T08:11:35;16.40;;;7.05;;
64966;SDS011;51710;38.732;-121.358;2023-02-19T08:14:22;15.98;;;7.30;;
64966;SDS011;51710;38.732;-121.358;2023-02-19T08:16:50;13.80;;;6.75;;
64966;SDS011;51710;38.732;-121.358;2023-02-19T08:19:17;13.40;;;6.13;;
64966;SDS011;51710;38.732;-121.358;2023-02-19T08:21:44;18.42;;;7.00;;
64966;SDS011;51710;38.732;-121.358;2023-02-19T08:24:10;18.95;;;7.43;;
64966;SDS011;51710;38.732;-121.358;2023-02-19T08:26:36;18.60;;;8.45;;
64966;SDS011;51710;38.732;-121.358;2023-02-19T08:29:03;17.95;;;8.07;;
64966;SDS011;51710;38.732;-121.358;2023-02-19T08:31:31;20.25;;;8.40;;
64966;SDS011;51710;38.732;-121.358;2023-02-19T08:33:57;21.67;;;9.65;;
64966;SDS011;51710;38.732;-121.358;2023-02-19T08:36:24;16.85;;;8.57;;
64966;SDS011;51710;38.732;-121.358;2023-02-19T08:38:50;19.08;;;9.00;;
64966;SDS011;51710;38.732;-121.358;2023-02-19T08:41:17;24.58;;;10.48;;
64966;SDS011;51710;38.732;-121.358;2023-02-19T08:43:43;29.42;;;13.55;;
64966;SDS011;51710;38.732;-121.358;2023-02-19T08:46:10;31.13;;;11.60;;
64966;SDS011;51710;38.732;-121.358;2023-02-19T08:48:37;36.90;;;13.80;;
64966;SDS011;51710;38.732;-121.358;2023-02-19T08:51:05;40.38;;;15.48;;
64966;SDS011;51710;38.732;-121.358;2023-02-19T08:53:34;33.67;;;12.55;;
64966;SDS011;51710;38.732;-121.358;2023-02-19T08:56:05;35.20;;;15.00;;
64966;SDS011;51710;38.732;-121.358;2023-02-19T08:58:33;39.35;;;17.77;;
64966;SDS011;51710;38.732;-121.358;2023-02-19T09:01:00;53.40;;;17.08;;
64966;SDS011;51710;38.732;-121.358;2023-02-19T09:03:26;48.28;;;18.17;;
64966;SDS011;51710;38.732;-121.358;2023-02-19T09:05:52;44.83;;;16.00;;
64966;SDS011;51710;38.732;-121.358;2023-02-19T09:08:19;48.40;;;18.45;;
64966;SDS011;51710;38.732;-121.358;2023-02-19T09:10:45;32.33;;;12.57;;
64966;SDS011;51710;38.732;-121.358;2023-02-19T09:13:22;28.75;;;11.90;;
64966;SDS011;51710;38.732;-121.358;2023-02-19T09:15:49;23.65;;;10.90;;
64966;SDS011;51710;38.732;-121.358;2023-02-19T09:18:15;20.25;;;8.38;;
64966;SDS011;51710;38.732;-121.358;2023-02-19T09:20:41;17.33;;;8.63;;
64966;SDS011;51710;38.732;-121.358;2023-02-19T09:23:07;27.23;;;10.32;;
64966;SDS011;51710;38.732;-121.358;2023-02-19T09:25:33;23.52;;;11.35;;
64966;SDS011;51710;38.732;-121.358;2023-02-19T09:28:00;29.98;;;11.35;;
64966;SDS011;51710;38.732;-121.358;2023-02-19T09:30:26;22.80;;;10.82;;
64966;SDS011;51710;38.732;-121.358;2023-02-19T09:32:52;29.38;;;11.50;;
64966;SDS011;51710;38.732;-121.358;2023-02-19T09:35:19;26.67;;;9.93;;
64966;SDS011;51710;38.732;-121.358;2023-02-19T09:37:45;20.83;;;9.70;;
64966;SDS011;51710;38.732;-121.358;2023-02-19T09:40:11;24.85;;;9.57;;
64966;SDS011;51710;38.732;-121.358;2023-02-19T09:42:39;27.35;;;10.50;;
64966;SDS011;51710;38.732;-121.358;2023-02-19T09:45:09;25.83;;;11.30;;
64966;SDS011;51710;38.732;-121.358;2023-02-19T09:47:45;20.10;;;9.68;;
64966;SDS011;51710;38.732;-121.358;2023-02-19T09:50:14;23.23;;;11.80;;
64966;SDS011;51710;38.732;-121.358;2023-02-19T09:55:27;19.65;;;10.27;;
64966;SDS011;51710;38.732;-121.358;2023-02-19T09:57:55;18.63;;;10.00;;
64966;SDS011;51710;38.732;-121.358;2023-02-19T10:00:26;22.05;;;10.48;;
64966;SDS011;51710;38.732;-121.358;2023-02-19T10:03:01;20.35;;;10.05;;
64966;SDS011;51710;38.732;-121.358;2023-02-19T10:05:31;20.83;;;10.57;;
64966;SDS011;51710;38.732;-121.358;2023-02-19T10:07:58;18.17;;;9.43;;
64966;SDS011;51710;38.732;-121.358;2023-02-19T10:10:26;19.95;;;10.00;;
64966;SDS011;51710;38.732;-121.358;2023-02-19T10:13:22;23.63;;;10.02;;
64966;SDS011;51710;38.732;-121.358;2023-02-19T10:15:55;20.77;;;10.25;;
64966;SDS011;51710;38.732;-121.358;2023-02-19T10:18:23;16.73;;;9.85;;
64966;SDS011;51710;38.732;-121.358;2023-02-19T10:20:54;22.88;;;9.98;;
64966;SDS011;51710;38.732;-121.358;2023-02-19T10:23:21;18.10;;;9.65;;
64966;SDS011;51710;38.732;-121.358;2023-02-19T10:25:56;19.70;;;10.00;;
64966;SDS011;51710;38.732;-121.358;2023-02-19T10:28:26;22.50;;;11.85;;
64966;SDS011;51710;38.732;-121.358;2023-02-19T10:30:56;23.75;;;12.48;;
64966;SDS011;51710;38.732;-121.358;2023-02-19T10:33:24;22.35;;;12.20;;
64966;SDS011;51710;38.732;-121.358;2023-02-19T10:35:55;24.50;;;10.38;;
64966;SDS011;51710;38.732;-121.358;2023-02-19T10:38:36;23.02;;;10.60;;
64966;SDS011;51710;38.732;-121.358;2023-02-19T10:41:11;23.27;;;10.80;;
64966;SDS011;51710;38.732;-121.358;2023-02-19T10:46:24;23.83;;;13.48;;
64966;SDS011;51710;38.732;-121.358;2023-02-19T10:49:03;22.38;;;12.15;;
64966;SDS011;51710;38.732;-121.358;2023-02-19T10:51:36;27.85;;;12.60;;
64966;SDS011;51710;38.732;-121.358;2023-02-19T10:54:06;20.33;;;11.20;;
64966;SDS011;51710;38.732;-121.358;2023-02-19T10:56:33;20.25;;;11.23;;
64966;SDS011;51710;38.732;-121.358;2023-02-19T10:59:17;20.98;;;11.10;;
64966;SDS011;51710;38.732;-121.358;2023-02-19T11:04:20;22.48;;;12.98;;
64966;SDS011;51710;38.732;-121.358;2023-02-19T11:06:46;21.73;;;11.18;;
64966;SDS011;51710;38.732;-121.358;2023-02-19T11:09:27;33.30;;;15.43;;
64966;SDS011;51710;38.732;-121.358;2023-02-19T11:11:59;28.92;;;15.88;;
64966;SDS011;51710;38.732;-121.358;2023-02-19T11:14:29;24.48;;;13.82;;
64966;SDS011;51710;38.732;-121.358;2023-02-19T11:16:58;23.80;;;12.43;;
64966;SDS011;51710;38.732;-121.358;2023-02-19T11:24:54;19.98;;;11.07;;
64966;SDS011;51710;38.732;-121.358;2023-02-19T11:27:21;22.17;;;10.90;;
64966;SDS011;51710;38.732;-121.358;2023-02-19T11:29:49;25.63;;;14.50;;
64966;SDS011;51710;38.732;-121.358;2023-02-19T11:32:36;21.23;;;11.57;;
64966;SDS011;51710;38.732;-121.358;2023-02-19T11:35:21;22.83;;;11.23;;
64966;SDS011;51710;38.732;-121.358;2023-02-19T11:37:52;23.20;;;10.38;;
64966;SDS011;51710;38.732;-121.358;2023-02-19T11:40:43;19.95;;;11.82;;
64966;SDS011;51710;38.732;-121.358;2023-02-19T11:54:45;25.25;;;11.32;;
64966;SDS011;51710;38.732;-121.358;2023-02-19T12:11:38;21.23;;;10.95;;
64966;SDS011;51710;38.732;-121.358;2023-02-19T12:15:00;20.25;;;10.25;;
64966;SDS011;51710;38.732;-121.358;2023-02-19T12:26:09;22.77;;;11.23;;
64966;SDS011;51710;38.732;-121.358;2023-02-19T12:29:01;21.35;;;11.10;;
64966;SDS011;51710;38.732;-121.358;2023-02-19T12:37:07;25.25;;;11.68;;
64966;SDS011;51710;38.732;-121.358;2023-02-19T12:44:53;21.42;;;9.90;;
64966;SDS011;51710;38.732;-121.358;2023-02-19T12:47:27;20.95;;;10.43;;
64966;SDS011;51710;38.732;-121.358;2023-02-19T12:50:22;19.98;;;10.68;;
64966;SDS011;51710;38.732;-121.358;2023-02-19T12:52:54;20.90;;;11.13;;
64966;SDS011;51710;38.732;-121.358;2023-02-19T12:55:38;21.65;;;10.40;;
64966;SDS011;51710;38.732;-121.358;2023-02-19T12:58:08;21.83;;;11.02;;
64966;SDS011;51710;38.732;-121.358;2023-02-19T13:00:42;21.13;;;11.23;;
64966;SDS011;51710;38.732;-121.358;2023-02-19T13:11:29;17.80;;;10.90;;
64966;SDS011;51710;38.732;-121.358;2023-02-19T13:14:02;22.92;;;10.25;;
64966;SDS011;51710;38.732;-121.358;2023-02-19T13:16:49;20.95;;;10.77;;
64966;SDS011;51710;38.732;-121.358;2023-02-19T13:19:21;19.92;;;10.88;;
64966;SDS011;51710;38.732;-121.358;2023-02-19T13:21:50;19.58;;;10.65;;
64966;SDS011;51710;38.732;-121.358;2023-02-19T13:24:42;22.38;;;10.68;;
64966;SDS011;51710;38.732;-121.358;2023-02-19T13:38:02;17.23;;;10.23;;
64966;SDS011;51710;38.732;-121.358;2023-02-19T13:43:03;21.17;;;10.90;;
64966;SDS011;51710;38.732;-121.358;2023-02-19T13:45:42;19.05;;;9.57;;
64966;SDS011;51710;38.732;-121.358;2023-02-19T14:28:00;18.65;;;10.57;;
64966;SDS011;51710;38.732;-121.358;2023-02-19T14:30:56;22.85;;;10.52;;
64966;SDS011;51710;38.732;-121.358;2023-02-19T14:33:26;20.05;;;10.43;;
64966;SDS011;51710;38.732;-121.358;2023-02-19T14:36:01;18.95;;;10.18;;
64966;SDS011;51710;38.732;-121.358;2023-02-19T14:38:46;20.77;;;10.73;;
64966;SDS011;51710;38.732;-121.358;2023-02-19T14:41:45;18.85;;;10.77;;
64966;SDS011;51710;38.732;-121.358;2023-02-19T14:44:18;19.27;;;10.95;;
64966;SDS011;51710;38.732;-121.358;2023-02-19T14:46:51;24.25;;;11.02;;
64966;SDS011;51710;38.732;-121.358;2023-02-19T14:49:36;20.52;;;11.40;;
64966;SDS011;51710;38.732;-121.358;2023-02-19T14:52:05;25.55;;;12.32;;
64966;SDS011;51710;38.732;-121.358;2023-02-19T14:54:39;22.15;;;11.98;;
64966;SDS011;51710;38.732;-121.358;2023-02-19T14:57:12;26.02;;;11.98;;
64966;SDS011;51710;38.732;-121.358;2023-02-19T15:00:19;22.83;;;11.10;;
64966;SDS011;51710;38.732;-121.358;2023-02-19T15:02:50;22.70;;;11.32;;
64966;SDS011;51710;38.732;-121.358;2023-02-19T15:05:24;23.73;;;11.68;;
64966;SDS011;51710;38.732;-121.358;2023-02-19T15:08:17;19.38;;;11.35;;
64966;SDS011;51710;38.732;-121.358;2023-02-19T15:10:46;22.10;;;11.35;;
64966;SDS011;51710;38.732;-121.358;2023-02-19T15:13:15;22.45;;;11.98;;
64966;SDS011;51710;38.732;-121.358;2023-02-19T15:15:47;23.80;;;11.65;;
64966;SDS011;51710;38.732;-121.358;2023-02-19T15:18:22;21.83;;;11.43;;
64966;SDS011;51710;38.732;-121.358;2023-02-19T15:20:50;23.33;;;11.65;;
64966;SDS011;51710;38.732;-121.358;2023-02-19T15:23:24;20.10;;;10.80;;
64966;SDS011;51710;38.732;-121.358;2023-02-19T15:25:54;26.42;;;11.57;;
64966;SDS011;51710;38.732;-121.358;2023-02-19T15:31:13;20.60;;;10.70;;
64966;SDS011;51710;38.732;-121.358;2023-02-19T15:33:47;17.60;;;9.90;;
64966;SDS011;51710;38.732;-121.358;2023-02-19T15:36:15;21.45;;;10.75;;
64966;SDS011;51710;38.732;-121.358;2023-02-19T15:38:51;29.45;;;12.15;;
64966;SDS011;51710;38.732;-121.358;2023-02-19T15:41:21;18.97;;;10.70;;
64966;SDS011;51710;38.732;-121.358;2023-02-19T15:46:42;18.20;;;11.25;;
64966;SDS011;51710;38.732;-121.358;2023-02-19T15:49:12;22.00;;;11.18;;
64966;SDS011;51710;38.732;-121.358;2023-02-19T15:51:54;20.70;;;10.90;;
64966;SDS011;51710;38.732;-121.358;2023-02-19T15:54:26;17.67;;;10.48;;
64966;SDS011;51710;38.732;-121.358;2023-02-19T15:56:57;18.63;;;10.07;;
64966;SDS011;51710;38.732;-121.358;2023-02-19T15:59:29;17.13;;;9.90;;
64966;SDS011;51710;38.732;-121.358;2023-02-19T16:02:04;24.73;;;10.82;;
64966;SDS011;51710;38.732;-121.358;2023-02-19T16:04:37;20.30;;;9.98;;
64966;SDS011;51710;38.732;-121.358;2023-02-19T16:12:54;16.58;;;9.65;;
64966;SDS011;51710;38.732;-121.358;2023-02-19T16:15:24;17.23;;;8.85;;
64966;SDS011;51710;38.732;-121.358;2023-02-19T16:17:51;16.08;;;8.05;;
64966;SDS011;51710;38.732;-121.358;2023-02-19T16:20:29;14.15;;;8.77;;
64966;SDS011;51710;38.732;-121.358;2023-02-19T16:22:59;15.27;;;8.15;;
64966;SDS011;51710;38.732;-121.358;2023-02-19T16:25:41;12.45;;;7.38;;
64966;SDS011;51710;38.732;-121.358;2023-02-19T16:28:13;12.10;;;8.23;;
64966;SDS011;51710;38.732;-121.358;2023-02-19T16:30:56;18.23;;;8.55;;
64966;SDS011;51710;38.732;-121.358;2023-02-19T16:41:28;16.17;;;7.78;;
64966;SDS011;51710;38.732;-121.358;2023-02-19T16:43:54;13.65;;;7.85;;
64966;SDS011;51710;38.732;-121.358;2023-02-19T16:46:21;18.10;;;8.38;;
64966;SDS011;51710;38.732;-121.358;2023-02-19T16:48:47;14.45;;;8.13;;
64966;SDS011;51710;38.732;-121.358;2023-02-19T16:51:22;15.77;;;8.15;;
64966;SDS011;51710;38.732;-121.358;2023-02-19T16:53:50;13.23;;;7.43;;
64966;SDS011;51710;38.732;-121.358;2023-02-19T16:56:19;14.02;;;8.45;;
64966;SDS011;51710;38.732;-121.358;2023-02-19T16:58:50;14.73;;;8.35;;
64966;SDS011;51710;38.732;-121.358;2023-02-19T17:01:16;14.18;;;8.25;;
64966;SDS011;51710;38.732;-121.358;2023-02-19T17:03:43;11.85;;;7.78;;
64966;SDS011;51710;38.732;-121.358;2023-02-19T17:06:11;13.57;;;8.15;;
64966;SDS011;51710;38.732;-121.358;2023-02-19T17:08:39;15.80;;;8.70;;
64966;SDS011;51710;38.732;-121.358;2023-02-19T17:11:10;14.25;;;7.78;;
64966;SDS011;51710;38.732;-121.358;2023-02-19T17:13:41;16.02;;;9.10;;
64966;SDS011;51710;38.732;-121.358;2023-02-19T17:16:20;15.52;;;8.88;;
64966;SDS011;51710;38.732;-121.358;2023-02-19T17:18:51;14.20;;;7.53;;
64966;SDS011;51710;38.732;-121.358;2023-02-19T17:21:26;14.55;;;8.55;;
64966;SDS011;51710;38.732;-121.358;2023-02-19T17:26:24;13.98;;;8.43;;
64966;SDS011;51710;38.732;-121.358;2023-02-19T17:28:56;11.90;;;8.25;;
64966;SDS011;51710;38.732;-121.358;2023-02-19T17:31:23;13.65;;;8.52;;
64966;SDS011;51710;38.732;-121.358;2023-02-19T17:33:49;12.00;;;7.85;;
64966;SDS011;51710;38.732;-121.358;2023-02-19T17:36:17;12.32;;;7.32;;
64966;SDS011;51710;38.732;-121.358;2023-02-19T17:38:45;11.85;;;7.78;;
64966;SDS011;51710;38.732;-121.358;2023-02-19T17:41:11;11.63;;;7.57;;
64966;SDS011;51710;38.732;-121.358;2023-02-19T17:43:37;13.18;;;7.70;;
64966;SDS011;51710;38.732;-121.358;2023-02-19T17:46:04;17.70;;;8.20;;
64966;SDS011;51710;38.732;-121.358;2023-02-19T17:48:30;15.55;;;9.25;;
64966;SDS011;51710;38.732;-121.358;2023-02-19T17:50:56;13.00;;;8.30;;
64966;SDS011;51710;38.732;-121.358;2023-02-19T17:53:23;10.85;;;7.50;;
64966;SDS011;51710;38.732;-121.358;2023-02-19T17:55:49;15.73;;;7.43;;
64966;SDS011;51710;38.732;-121.358;2023-02-19T17:58:15;12.18;;;6.78;;
64966;SDS011;51710;38.732;-121.358;2023-02-19T18:00:42;11.60;;;7.55;;
64966;SDS011;51710;38.732;-121.358;2023-02-19T18:03:08;9.68;;;6.95;;
64966;SDS011;51710;38.732;-121.358;2023-02-19T18:05:35;9.60;;;6.25;;
64966;SDS011;51710;38.732;-121.358;2023-02-19T18:08:01;9.55;;;5.90;;
64966;SDS011;51710;38.732;-121.358;2023-02-19T18:10:27;11.80;;;6.30;;
64966;SDS011;51710;38.732;-121.358;2023-02-19T18:12:54;9.60;;;5.20;;